Time;durP1;ratioP1;P1;durP2;ratioP2;P2;SDS_P1;SDS_P2;PMS_P1;PMS_P2;Temp;Humidity;BMP_temperature;BMP_pressure;BME280_temperature;BME280_humidity;BME280_pressure;Samples;Min_cycle;Max_cycle;Signal;HPM_P1;HPM_P2
2021/10/01 00:00:57;;;;;;;0.93;0.40;;;;;;;10.47;63.90;97922.38;4976725;28;20030;-80
2021/10/01 00:03:22;;;;;;;1.48;0.30;;;;;;;10.44;64.05;97913.16;4993845;28;20034;-80
2021/10/01 00:05:48;;;;;;;1.20;0.30;;;;;;;10.43;64.01;97916.78;4993470;28;20030;-79
2021/10/01 00:08:13;;;;;;;1.67;0.55;;;;;;;10.42;63.91;97910.00;4993157;28;20369;-80
2021/10/01 00:10:39;;;;;;;3.33;0.40;;;;;;;10.48;63.94;97903.09;4993503;28;20034;-79
2021/10/01 00:13:04;;;;;;;2.35;0.30;;;;;;;10.40;63.88;97901.63;4993559;28;20042;-80
2021/10/01 00:15:31;;;;;;;1.30;0.30;;;;;;;10.42;64.24;97904.81;4976931;28;20092;-79
2021/10/01 00:17:57;;;;;;;1.00;0.30;;;;;;;10.39;64.15;97897.44;4987902;28;20117;-80
2021/10/01 00:20:22;;;;;;;0.80;0.30;;;;;;;10.40;63.83;97893.81;4991232;28;20105;-81
2021/10/01 00:22:47;;;;;;;2.15;0.40;;;;;;;10.42;63.81;97894.38;4991435;28;20042;-80
2021/10/01 00:25:13;;;;;;;1.05;0.30;;;;;;;10.37;63.88;97880.47;4993158;28;20506;-80
2021/10/01 00:27:38;;;;;;;0.70;0.20;;;;;;;10.41;62.60;97886.81;4990514;28;20026;-81
2021/10/01 00:30:05;;;;;;;1.00;0.30;;;;;;;10.37;63.55;97888.28;5010938;28;20628;-80
2021/10/01 00:32:30;;;;;;;3.78;1.02;;;;;;;10.36;62.89;97886.69;4994492;28;20022;-80
2021/10/01 00:34:56;;;;;;;0.93;0.38;;;;;;;10.28;62.76;97882.56;4994594;28;20100;-80
2021/10/01 00:37:21;;;;;;;0.50;0.40;;;;;;;10.19;62.94;97884.69;4994531;28;20572;-80
2021/10/01 00:39:47;;;;;;;0.70;0.20;;;;;;;10.05;62.57;97884.09;4985407;28;20034;-80
2021/10/01 00:42:12;;;;;;;0.73;0.25;;;;;;;9.89;62.85;97875.13;4975297;28;20043;-79
2021/10/01 00:44:38;;;;;;;2.30;0.40;;;;;;;9.81;62.52;97877.25;4992531;28;20030;-80
2021/10/01 00:47:04;;;;;;;2.25;0.30;;;;;;;9.67;63.31;97869.63;5000991;28;20092;-80
2021/10/01 00:49:29;;;;;;;0.55;0.22;;;;;;;9.57;63.71;97858.97;4999525;28;20030;-80
2021/10/01 00:51:54;;;;;;;0.77;0.30;;;;;;;9.55;64.23;97853.22;5000708;28;20034;-79
2021/10/01 00:54:20;;;;;;;1.90;0.50;;;;;;;9.49;63.57;97854.06;5003946;28;20080;-79
2021/10/01 00:56:46;;;;;;;0.40;0.30;;;;;;;9.47;63.96;97862.09;5001437;28;20401;-80
2021/10/01 00:59:11;;;;;;;1.10;0.30;;;;;;;9.51;63.89;97860.66;4994396;28;20037;-80
2021/10/01 01:01:36;;;;;;;1.00;0.35;;;;;;;9.45;64.19;97852.94;5010831;28;20493;-81
2021/10/01 01:04:04;;;;;;;1.88;0.80;;;;;;;9.36;64.50;97852.47;5010455;28;20028;-81
2021/10/01 01:06:52;;;;;;;0.70;0.40;;;;;;;9.28;64.76;97852.75;4977980;28;20045;-81
2021/10/01 01:09:43;;;;;;;0.55;0.25;;;;;;;9.29;64.66;97856.94;5010058;28;20113;-80
2021/10/01 01:12:08;;;;;;;0.68;0.40;;;;;;;9.46;64.33;97852.72;4993936;28;20092;-80
2021/10/01 01:15:07;;;;;;;2.45;0.47;;;;;;;9.21;64.68;97849.44;5010001;28;20037;-81
2021/10/01 01:17:43;;;;;;;0.60;0.40;;;;;;;9.29;64.50;97851.75;4993738;28;20661;-80
2021/10/01 01:20:50;;;;;;;1.48;0.82;;;;;;;9.30;64.56;97846.31;4993614;28;20562;-79
2021/10/01 01:23:37;;;;;;;1.38;0.35;;;;;;;9.32;65.04;97843.50;4950388;29;20046;-80
2021/10/01 01:26:17;;;;;;;0.93;0.50;;;;;;;9.41;65.15;97842.19;4934366;29;20041;-80
2021/10/01 01:28:51;;;;;;;1.83;0.40;;;;;;;9.30;65.18;97840.31;4918937;29;20034;-80
2021/10/01 01:31:39;;;;;;;1.17;0.40;;;;;;;9.20;65.41;97840.84;4933916;29;20051;-80
2021/10/01 01:34:05;;;;;;;1.35;0.38;;;;;;;9.42;64.83;97828.16;4918138;29;20043;-80
2021/10/01 01:36:32;;;;;;;2.13;0.38;;;;;;;9.43;65.72;97829.78;4934269;29;20050;-80
2021/10/01 01:38:59;;;;;;;1.30;0.20;;;;;;;9.41;65.49;97821.41;4934239;29;20368;-80
2021/10/01 01:41:27;;;;;;;0.82;0.28;;;;;;;9.42;65.03;97820.38;4918607;29;20043;-80
2021/10/01 01:43:54;;;;;;;2.72;0.68;;;;;;;9.37;64.55;97820.25;4933927;29;20078;-79
2021/10/01 01:46:23;;;;;;;2.03;0.38;;;;;;;9.37;65.06;97815.03;4919722;28;20126;-80
2021/10/01 01:48:48;;;;;;;1.70;0.40;;;;;;;9.49;64.58;97815.91;4938943;29;20554;-80
2021/10/01 01:51:15;;;;;;;2.15;0.70;;;;;;;9.43;64.66;97814.16;4933190;29;20047;-79
2021/10/01 01:53:42;;;;;;;1.05;0.25;;;;;;;9.41;64.42;97812.78;4933893;29;20043;-80
2021/10/01 01:56:09;;;;;;;2.53;0.30;;;;;;;9.33;64.21;97803.50;4935248;28;20058;-80
2021/10/01 01:58:35;;;;;;;1.38;0.50;;;;;;;9.37;64.09;97815.03;4990154;28;20034;-80
2021/10/01 02:01:01;;;;;;;1.13;0.22;;;;;;;9.24;63.98;97810.03;4957497;28;20026;-80
2021/10/01 02:03:27;;;;;;;1.23;0.30;;;;;;;9.23;63.89;97805.84;4973711;28;20034;-80
2021/10/01 02:05:54;;;;;;;1.60;0.35;;;;;;;9.20;64.37;97804.47;4973849;28;20042;-81
2021/10/01 02:08:19;;;;;;;1.35;0.30;;;;;;;9.15;64.18;97801.72;4974011;28;20034;-80
2021/10/01 02:10:46;;;;;;;1.15;0.20;;;;;;;9.12;64.24;97804.78;4989893;28;20457;-80
2021/10/01 02:13:11;;;;;;;0.77;0.40;;;;;;;9.09;64.78;97803.41;4989916;28;20029;-81
2021/10/01 02:15:37;;;;;;;1.05;0.43;;;;;;;9.00;65.43;97804.72;4974020;28;20624;-80
2021/10/01 02:18:05;;;;;;;0.70;0.28;;;;;;;8.95;64.91;97796.78;4973813;28;20043;-80
2021/10/01 02:20:33;;;;;;;0.47;0.20;;;;;;;8.95;64.78;97804.59;4989826;28;20537;-80
2021/10/01 02:22:59;;;;;;;0.70;0.50;;;;;;;8.92;65.03;97792.03;4973701;28;20034;-81
2021/10/01 02:28:13;;;;;;;2.17;0.38;;;;;;;8.81;65.07;97788.38;4989907;28;20034;-80
2021/10/01 02:30:38;;;;;;;1.05;0.52;;;;;;;8.92;64.75;97784.25;4973407;28;20033;-80
2021/10/01 02:33:33;;;;;;;1.70;0.20;;;;;;;8.66;65.50;97786.13;4957573;28;20508;-79
2021/10/01 02:35:59;;;;;;;0.90;0.30;;;;;;;8.92;64.87;97773.84;4973719;28;20449;-80
2021/10/01 02:38:24;;;;;;;0.93;0.20;;;;;;;8.89;64.41;97762.09;4989981;28;20072;-80
2021/10/01 02:40:49;;;;;;;2.28;0.50;;;;;;;8.92;64.77;97768.66;4989398;28;20030;-80
2021/10/01 02:43:15;;;;;;;1.52;0.25;;;;;;;8.86;64.59;97770.34;4973636;28;20054;-80
2021/10/01 02:45:40;;;;;;;0.80;0.20;;;;;;;8.83;64.87;97762.19;4989740;28;20030;-80
2021/10/01 02:48:06;;;;;;;1.27;0.30;;;;;;;8.77;65.12;97762.06;5003685;28;20731;-80
2021/10/01 02:50:31;;;;;;;0.85;0.30;;;;;;;8.80;64.54;97753.81;5010005;28;20030;-80
2021/10/01 02:53:03;;;;;;;1.17;0.43;;;;;;;8.65;64.51;97755.97;4992905;28;20044;-80
2021/10/01 02:55:36;;;;;;;0.50;0.30;;;;;;;8.67;64.49;97756.56;4993043;28;20069;-80
2021/10/01 02:58:13;;;;;;;0.77;0.15;;;;;;;8.74;65.01;97752.09;5009089;28;20072;-80
2021/10/01 03:00:38;;;;;;;1.00;0.40;;;;;;;8.67;65.08;97743.59;4992781;28;20034;-80
2021/10/01 03:03:10;;;;;;;2.10;0.77;;;;;;;8.58;65.20;97753.44;5009799;28;20145;-80
2021/10/01 03:05:37;;;;;;;1.90;0.57;;;;;;;8.72;64.66;97748.13;4996530;28;20484;-80
2021/10/01 03:08:03;;;;;;;1.33;0.32;;;;;;;8.73;64.48;97741.91;4980173;28;20029;-80
2021/10/01 03:10:29;;;;;;;0.73;0.30;;;;;;;8.73;64.54;97736.72;4979954;28;20125;-80
2021/10/01 03:12:55;;;;;;;1.40;0.40;;;;;;;8.71;64.36;97739.53;4980256;28;20498;-80
2021/10/01 03:15:21;;;;;;;0.75;0.45;;;;;;;8.65;64.85;97737.81;4996293;28;20374;-80
2021/10/01 03:17:47;;;;;;;1.77;0.28;;;;;;;8.72;65.34;97735.13;5013144;28;20042;-81
2021/10/01 03:20:14;;;;;;;2.15;0.32;;;;;;;8.68;65.60;97729.59;4996255;28;20485;-81
2021/10/01 03:22:41;;;;;;;0.68;0.30;;;;;;;8.80;65.57;97724.47;4979890;28;20026;-81
2021/10/01 03:25:07;;;;;;;1.45;0.57;;;;;;;8.87;64.76;97729.56;5012381;28;20587;-81
2021/10/01 03:27:33;;;;;;;1.05;0.32;;;;;;;8.87;64.76;97721.78;4979700;28;20030;-81
2021/10/01 03:30:00;;;;;;;1.38;0.50;;;;;;;8.86;65.02;97712.38;4995504;28;20146;-81
2021/10/01 03:32:30;;;;;;;0.63;0.30;;;;;;;8.87;64.40;97722.56;4995858;28;20030;-80
2021/10/01 03:34:55;;;;;;;0.77;0.40;;;;;;;8.84;64.22;97722.22;4980093;28;20040;-80
2021/10/01 03:37:21;;;;;;;2.17;0.30;;;;;;;8.72;63.75;97717.78;5013647;28;20477;-80
2021/10/01 03:40:06;;;;;;;1.95;0.63;;;;;;;8.44;64.51;97719.06;5011770;28;20101;-80
2021/10/01 03:42:31;;;;;;;1.63;0.28;;;;;;;8.54;64.22;97720.38;4979435;28;20030;-80
2021/10/01 03:44:57;;;;;;;0.93;0.30;;;;;;;8.53;64.37;97711.00;4996089;28;20056;-79
2021/10/01 03:47:23;;;;;;;0.30;0.30;;;;;;;8.49;64.41;97717.66;4994992;28;20044;-80
2021/10/01 03:49:48;;;;;;;0.30;0.20;;;;;;;8.43;64.72;97712.31;4995062;28;20037;-80
2021/10/01 03:52:13;;;;;;;1.05;0.40;;;;;;;8.39;64.96;97708.50;4979995;28;20026;-80
2021/10/01 03:54:42;;;;;;;1.02;0.40;;;;;;;8.43;64.85;97712.31;4979170;28;20033;-80
2021/10/01 03:57:07;;;;;;;0.93;0.40;;;;;;;8.48;65.27;97708.25;5011707;28;20034;-80
2021/10/01 03:59:32;;;;;;;2.20;0.40;;;;;;;8.54;65.63;97702.22;4978888;28;20034;-80
2021/10/01 04:01:58;;;;;;;0.57;0.30;;;;;;;8.62;65.05;97710.50;5011977;28;20030;-80
2021/10/01 04:04:24;;;;;;;1.23;0.20;;;;;;;8.63;65.17;97708.69;5013225;28;20037;-80
2021/10/01 04:06:49;;;;;;;1.63;0.40;;;;;;;8.70;65.10;97704.19;4995519;28;20128;-81
2021/10/01 04:09:14;;;;;;;1.50;0.30;;;;;;;8.68;65.17;97705.44;4995088;28;20449;-81
2021/10/01 04:11:40;;;;;;;0.75;0.30;;;;;;;8.68;65.30;97706.22;4995285;28;20026;-81
2021/10/01 04:14:06;;;;;;;3.15;0.30;;;;;;;8.72;65.06;97699.59;5012897;28;20034;-81
2021/10/01 04:16:31;;;;;;;1.08;0.50;;;;;;;8.71;65.46;97703.19;4979247;28;20068;-81
2021/10/01 04:18:57;;;;;;;1.25;0.30;;;;;;;8.72;65.60;97694.41;5011278;28;20026;-81
2021/10/01 04:21:22;;;;;;;0.40;0.30;;;;;;;8.76;65.48;97700.72;4995478;28;20042;-81
2021/10/01 04:23:47;;;;;;;0.50;0.20;;;;;;;8.73;65.25;97697.78;4995453;28;20105;-80
2021/10/01 04:26:13;;;;;;;0.60;0.30;;;;;;;8.70;65.25;97696.41;4979257;28;20022;-80
2021/10/01 04:28:38;;;;;;;0.40;0.30;;;;;;;8.76;65.51;97703.34;4995135;28;20108;-80
2021/10/01 04:31:04;;;;;;;1.90;0.38;;;;;;;8.74;65.06;97696.75;4978771;28;20141;-80
2021/10/01 04:33:33;;;;;;;1.35;0.40;;;;;;;8.68;65.15;97693.25;4978596;28;20105;-80
2021/10/01 04:35:59;;;;;;;1.10;0.50;;;;;;;8.67;65.19;97686.47;4979078;28;20091;-80
2021/10/01 04:38:25;;;;;;;0.50;0.20;;;;;;;8.66;64.76;97684.88;4994612;28;20426;-80
2021/10/01 04:40:50;;;;;;;0.40;0.30;;;;;;;8.62;65.13;97686.34;4994342;28;20036;-80
2021/10/01 04:43:16;;;;;;;0.88;0.30;;;;;;;8.59;64.84;97684.97;4994534;28;20034;-80
2021/10/01 04:45:41;;;;;;;1.08;0.47;;;;;;;8.57;64.70;97683.63;4994627;28;20057;-80
2021/10/01 04:48:07;;;;;;;1.00;0.40;;;;;;;8.50;64.18;97680.28;4989772;28;20059;-80
2021/10/01 04:50:33;;;;;;;0.65;0.30;;;;;;;8.42;64.45;97695.16;4997274;28;20040;-80
2021/10/01 04:52:59;;;;;;;1.20;0.32;;;;;;;8.34;64.46;97686.84;4997719;28;20465;-80
2021/10/01 04:55:24;;;;;;;0.80;0.30;;;;;;;8.31;64.60;97682.88;4997560;28;20030;-81
2021/10/01 04:57:50;;;;;;;2.75;0.40;;;;;;;8.25;64.46;97678.56;5030389;28;20496;-80
2021/10/01 05:00:16;;;;;;;1.33;0.40;;;;;;;8.24;64.52;97689.91;5029646;28;20036;-81
2021/10/01 05:02:41;;;;;;;2.22;0.80;;;;;;;8.18;64.87;97683.81;5029415;28;20038;-80
2021/10/01 05:05:07;;;;;;;1.48;0.28;;;;;;;8.07;64.68;97681.91;5013772;28;20113;-81
2021/10/01 05:07:32;;;;;;;1.02;0.38;;;;;;;8.06;64.99;97677.75;5013092;28;20470;-81
2021/10/01 05:09:58;;;;;;;4.68;0.50;;;;;;;8.05;65.24;97687.34;5028966;28;20080;-81
2021/10/01 05:12:23;;;;;;;2.05;0.20;;;;;;;8.03;65.25;97678.97;5012871;28;20032;-80
2021/10/01 05:14:48;;;;;;;1.33;0.45;;;;;;;8.02;65.78;97684.34;5012942;28;20040;-80
2021/10/01 05:17:14;;;;;;;0.73;0.20;;;;;;;8.00;65.87;97684.59;5012997;28;20026;-79
2021/10/01 05:19:39;;;;;;;2.70;0.22;;;;;;;8.00;65.83;97681.19;5012641;28;20108;-79
2021/10/01 05:22:05;;;;;;;0.77;0.38;;;;;;;8.00;65.71;97694.16;5028996;28;20500;-79
2021/10/01 05:24:34;;;;;;;0.60;0.30;;;;;;;7.89;65.50;97690.47;5013013;28;20044;-80
2021/10/01 05:26:59;;;;;;;0.88;0.40;;;;;;;8.03;65.38;97691.16;5013462;28;20037;-80
2021/10/01 05:29:25;;;;;;;0.40;0.30;;;;;;;8.03;65.52;97696.34;5013534;28;20087;-80
2021/10/01 05:31:50;;;;;;;0.70;0.68;;;;;;;7.96;65.72;97685.25;4970241;28;20034;-80
2021/10/01 05:34:17;;;;;;;2.92;0.52;;;;;;;8.01;65.84;97696.53;4974692;28;20234;-80
2021/10/01 05:36:42;;;;;;;0.63;0.32;;;;;;;8.07;66.00;97684.50;4991268;28;20057;-81
2021/10/01 05:39:07;;;;;;;0.82;0.30;;;;;;;8.14;65.84;97693.03;4974017;28;20047;-81
2021/10/01 05:41:33;;;;;;;0.50;0.40;;;;;;;8.16;66.01;97690.22;4991672;28;20034;-81
2021/10/01 05:44:00;;;;;;;0.50;0.30;;;;;;;8.17;65.74;97692.59;4964931;28;20030;-81
2021/10/01 05:46:25;;;;;;;1.85;0.47;;;;;;;8.27;66.13;97689.50;4978089;28;20030;-81
2021/10/01 05:48:54;;;;;;;1.50;0.30;;;;;;;8.30;65.89;97696.06;4993005;28;20764;-81
2021/10/01 05:51:20;;;;;;;1.25;0.30;;;;;;;8.34;66.17;97690.22;4991608;28;20046;-81
2021/10/01 05:54:01;;;;;;;1.45;0.85;;;;;;;8.40;65.94;97693.75;4990741;28;20027;-81
2021/10/01 05:56:27;;;;;;;1.40;0.40;;;;;;;8.44;66.04;97687.94;4983984;28;20037;-81
2021/10/01 05:58:53;;;;;;;1.70;0.30;;;;;;;8.45;65.84;97693.94;4965676;28;20125;-80
2021/10/01 06:01:18;;;;;;;1.00;0.30;;;;;;;8.50;65.79;97688.88;4983105;28;20108;-81
2021/10/01 06:03:43;;;;;;;4.55;1.08;;;;;;;8.51;65.94;97681.88;5009500;28;20030;-81
2021/10/01 06:06:09;;;;;;;1.35;0.32;;;;;;;8.55;65.54;97681.22;4993022;28;20026;-80
2021/10/01 06:08:34;;;;;;;1.65;0.35;;;;;;;8.63;65.16;97680.13;4976569;28;20033;-80
2021/10/01 06:11:00;;;;;;;1.95;0.40;;;;;;;8.70;64.92;97677.44;4976452;28;20029;-80
2021/10/01 06:13:26;;;;;;;2.22;0.50;;;;;;;8.70;64.66;97675.63;5008707;28;20033;-80
2021/10/01 06:15:51;;;;;;;1.70;0.50;;;;;;;8.76;64.58;97676.59;5009036;28;20026;-80
2021/10/01 06:18:16;;;;;;;1.38;0.60;;;;;;;8.73;64.43;97667.41;4992790;28;20033;-80
2021/10/01 06:20:42;;;;;;;1.08;0.40;;;;;;;8.74;64.57;97674.22;5008409;28;20034;-80
2021/10/01 06:23:07;;;;;;;2.55;0.85;;;;;;;8.75;64.75;97678.38;5009770;28;20117;-81
2021/10/01 06:25:33;;;;;;;2.83;0.30;;;;;;;8.75;64.74;97672.41;4993070;28;20026;-81
2021/10/01 06:27:58;;;;;;;1.13;0.70;;;;;;;8.84;65.08;97670.28;4991767;28;20385;-80
2021/10/01 06:30:23;;;;;;;0.85;0.40;;;;;;;8.94;64.48;97663.53;4992324;28;20057;-81
2021/10/01 06:32:49;;;;;;;1.85;0.30;;;;;;;8.95;64.60;97661.75;5008954;28;20104;-81
2021/10/01 06:35:14;;;;;;;0.32;0.30;;;;;;;8.98;64.66;97661.31;4992616;28;20026;-81
2021/10/01 06:37:40;;;;;;;2.42;0.50;;;;;;;9.11;64.74;97655.91;5010196;28;20118;-80
2021/10/01 06:40:06;;;;;;;1.00;0.30;;;;;;;9.31;64.35;97660.81;5012045;28;20022;-80
2021/10/01 06:42:33;;;;;;;1.85;0.32;;;;;;;9.42;63.88;97667.03;4980372;28;20542;-81
2021/10/01 06:45:02;;;;;;;0.52;0.30;;;;;;;9.53;64.04;97666.25;4991224;28;20630;-80
2021/10/01 08:19:53;;;;;;;0.85;0.45;;;;;;;16.12;50.70;97653.47;4996257;28;20503;-79
2021/10/01 08:22:18;;;;;;;1.38;0.73;;;;;;;16.14;51.68;97648.75;4994314;28;20030;-80
2021/10/01 08:24:44;;;;;;;0.55;0.40;;;;;;;16.41;50.72;97642.34;5010350;28;20032;-79
2021/10/01 08:27:09;;;;;;;1.05;0.52;;;;;;;16.64;50.71;97646.94;5010552;28;20026;-81
2021/10/01 08:29:34;;;;;;;1.40;0.40;;;;;;;16.69;49.45;97640.06;5010179;28;20034;-79
2021/10/01 08:32:01;;;;;;;1.10;0.55;;;;;;;16.82;50.41;97639.47;4977571;28;20029;-80
2021/10/01 08:34:37;;;;;;;1.65;1.08;;;;;;;16.90;49.33;97638.94;5009979;28;20084;-80
2021/10/01 08:37:04;;;;;;;0.52;0.32;;;;;;;17.30;47.30;97639.66;4993913;28;20096;-80
2021/10/01 08:39:29;;;;;;;0.80;0.50;;;;;;;17.39;48.04;97632.75;5010202;28;20029;-80
2021/10/01 08:41:54;;;;;;;1.05;0.40;;;;;;;17.40;47.90;97636.16;5009606;28;20049;-81
2021/10/01 08:44:20;;;;;;;0.93;0.40;;;;;;;17.35;48.58;97621.19;4993792;28;20517;-80
2021/10/01 08:46:48;;;;;;;0.98;0.40;;;;;;;17.51;47.78;97628.97;5009923;28;20061;-80
2021/10/01 08:49:14;;;;;;;0.60;0.40;;;;;;;17.63;48.15;97633.84;4993382;28;20037;-80
2021/10/01 08:51:40;;;;;;;1.27;0.77;;;;;;;17.78;46.87;97631.84;5009820;28;20045;-80
2021/10/01 08:54:07;;;;;;;1.35;0.50;;;;;;;18.00;46.72;97633.22;4986657;28;20029;-80
2021/10/01 08:56:32;;;;;;;0.60;0.50;;;;;;;18.17;44.86;97626.72;5009175;28;20041;-80
2021/10/01 08:58:58;;;;;;;1.20;0.65;;;;;;;17.87;46.97;97634.69;4957881;28;20552;-80
2021/10/01 09:01:23;;;;;;;2.35;0.75;;;;;;;17.98;46.51;97635.38;4998059;28;20049;-80
2021/10/01 09:03:49;;;;;;;2.72;0.88;;;;;;;17.95;46.10;97625.38;4991928;28;20080;-80
2021/10/01 09:06:15;;;;;;;1.38;0.60;;;;;;;18.00;47.33;97627.19;4991627;28;20132;-80
2021/10/01 09:08:54;;;;;;;0.88;0.65;;;;;;;17.72;45.42;97632.19;5001133;28;20038;-80
2021/10/01 09:11:38;;;;;;;1.67;0.63;;;;;;;17.68;45.20;97634.56;4956262;28;20037;-80
2021/10/01 09:14:06;;;;;;;1.17;0.50;;;;;;;17.85;45.91;97628.09;4955922;28;20053;-80
2021/10/01 09:16:32;;;;;;;0.63;0.43;;;;;;;18.01;43.93;97624.28;4972093;28;20552;-80
2021/10/01 09:18:57;;;;;;;1.23;0.40;;;;;;;18.06;44.73;97633.94;4950473;28;20030;-80
2021/10/01 09:21:23;;;;;;;1.60;0.60;;;;;;;18.29;44.32;97630.50;4956090;28;20382;-80
2021/10/01 09:24:04;;;;;;;1.23;0.40;;;;;;;18.28;42.83;97623.69;4988077;28;20041;-80
2021/10/01 09:26:32;;;;;;;0.47;0.40;;;;;;;18.46;44.05;97614.22;4988178;28;20518;-80
2021/10/01 09:29:06;;;;;;;1.80;0.43;;;;;;;18.63;42.06;97624.25;4955736;28;20058;-80
2021/10/01 09:31:43;;;;;;;2.22;0.50;;;;;;;18.69;41.34;97617.06;4998803;28;20026;-79
2021/10/01 09:34:12;;;;;;;0.55;0.50;;;;;;;18.99;40.89;97605.28;4991209;28;20042;-80
2021/10/01 09:36:38;;;;;;;1.10;0.30;;;;;;;19.00;39.57;97608.72;4990865;28;20112;-81
2021/10/01 09:39:05;;;;;;;1.27;0.55;;;;;;;19.28;40.85;97607.72;5007657;28;20045;-80
2021/10/01 09:41:33;;;;;;;1.02;0.30;;;;;;;19.38;40.26;97604.13;4975606;28;20103;-80
2021/10/01 09:44:00;;;;;;;1.38;0.40;;;;;;;19.15;40.10;97603.19;4990917;28;20087;-81
2021/10/01 09:46:34;;;;;;;1.60;0.47;;;;;;;19.20;39.92;97599.69;4991512;28;20030;-81
2021/10/01 09:49:02;;;;;;;0.77;0.50;;;;;;;19.72;39.66;97596.91;4990778;28;20456;-81
2021/10/01 09:51:27;;;;;;;1.52;0.70;;;;;;;19.96;38.27;97588.81;4975434;28;20095;-80
2021/10/01 09:53:53;;;;;;;2.58;0.50;;;;;;;20.04;39.16;97590.75;4971376;28;20472;-80
2021/10/01 09:56:29;;;;;;;0.77;0.45;;;;;;;19.73;38.08;97586.06;4987706;28;20049;-81
2021/10/01 09:59:13;;;;;;;1.15;0.32;;;;;;;19.56;39.06;97591.91;4970933;28;20038;-82
2021/10/01 10:02:02;;;;;;;3.80;0.40;;;;;;;19.99;39.79;97585.59;4971372;28;20121;-80
2021/10/01 10:04:28;;;;;;;0.77;0.45;;;;;;;20.26;39.66;97579.47;4955132;28;20045;-81
2021/10/01 10:06:54;;;;;;;1.05;0.57;;;;;;;20.27;39.60;97577.59;4987857;28;20061;-81
2021/10/01 10:09:34;;;;;;;1.10;1.00;;;;;;;20.20;40.00;97578.00;4970808;28;20038;-80
2021/10/01 10:12:00;;;;;;;1.20;0.52;;;;;;;20.31;38.31;97574.06;4971913;28;20100;-82
2021/10/01 10:14:27;;;;;;;1.20;0.50;;;;;;;20.58;38.48;97565.28;4959000;28;20035;-81
2021/10/01 10:16:57;;;;;;;1.42;0.63;;;;;;;20.60;38.34;97570.28;4959541;28;20516;-81
2021/10/01 10:19:22;;;;;;;0.40;0.30;;;;;;;20.55;38.06;97557.94;4991469;28;20121;-82
2021/10/01 10:21:48;;;;;;;2.38;0.50;;;;;;;20.67;39.05;97556.66;4962054;28;20585;-81
2021/10/01 10:24:14;;;;;;;1.27;0.47;;;;;;;21.09;38.06;97562.50;4975265;28;20120;-81
2021/10/01 10:26:39;;;;;;;1.75;0.73;;;;;;;21.03;38.45;97558.44;4991385;28;20112;-81
2021/10/01 10:29:10;;;;;;;1.50;0.60;;;;;;;20.89;37.90;97558.53;4974426;28;20383;-81
2021/10/01 10:31:36;;;;;;;1.98;0.60;;;;;;;20.98;38.77;97547.97;4975464;28;20473;-81
2021/10/01 10:34:02;;;;;;;0.77;0.32;;;;;;;21.07;38.74;97544.28;4974773;28;20034;-81
2021/10/01 10:36:37;;;;;;;1.45;0.50;;;;;;;21.12;38.73;97549.44;4990648;28;20549;-81
2021/10/01 10:39:12;;;;;;;0.75;0.50;;;;;;;21.23;37.39;97552.63;4991152;28;20478;-80
2021/10/01 10:41:44;;;;;;;1.35;0.43;;;;;;;21.25;37.47;97536.41;4975066;28;20038;-80
2021/10/01 10:44:11;;;;;;;0.95;0.50;;;;;;;21.36;39.28;97536.94;4958985;28;20128;-80
2021/10/01 10:46:36;;;;;;;0.60;0.50;;;;;;;21.85;36.98;97543.81;4987811;28;20036;-81
2021/10/01 10:49:17;;;;;;;1.02;0.60;;;;;;;21.60;37.51;97542.66;5010948;28;20429;-81
2021/10/01 10:54:42;;;;;;;1.38;0.70;;;;;;;22.04;35.79;97526.88;5024024;28;20029;-81
2021/10/01 10:57:22;;;;;;;1.50;0.40;;;;;;;22.28;37.39;97525.63;5007988;28;20383;-81
2021/10/01 10:59:51;;;;;;;1.15;0.40;;;;;;;22.52;35.41;97523.31;4990924;28;20439;-80
2021/10/01 11:02:32;;;;;;;1.85;0.70;;;;;;;22.57;37.21;97512.53;4996813;28;20138;-81
2021/10/01 11:05:27;;;;;;;1.60;0.70;;;;;;;23.03;35.07;97515.56;4994181;28;20036;-82
2021/10/01 11:08:02;;;;;;;1.35;0.88;;;;;;;23.38;36.09;97504.81;5010217;28;20045;-81
2021/10/01 11:10:41;;;;;;;1.83;0.98;;;;;;;23.86;32.51;97500.97;4993455;28;20128;-82
2021/10/01 11:13:19;;;;;;;1.08;0.70;;;;;;;24.22;33.83;97493.53;4977420;28;20037;-82
2021/10/01 11:16:13;;;;;;;0.60;0.60;;;;;;;24.37;31.73;97492.94;5010176;28;20401;-81
2021/10/01 11:18:42;;;;;;;3.22;0.70;;;;;;;24.90;31.65;97487.09;4987007;28;20053;-81
2021/10/01 11:21:29;;;;;;;0.73;0.65;;;;;;;24.91;31.40;97488.66;4990058;28;20469;-81
2021/10/01 11:24:06;;;;;;;0.88;0.70;;;;;;;25.49;31.27;97492.06;5004373;28;20026;-82
2021/10/01 11:26:36;;;;;;;1.77;0.80;;;;;;;25.54;30.83;97477.72;4983299;28;20041;-83
2021/10/01 11:29:04;;;;;;;0.65;0.60;;;;;;;25.76;29.97;97473.81;4990727;28;20037;-82
2021/10/01 11:31:37;;;;;;;1.42;0.60;;;;;;;25.70;30.89;97461.81;4990503;28;20063;-83
2021/10/01 11:34:03;;;;;;;0.77;0.65;;;;;;;25.94;30.18;97461.78;4989840;28;20039;-84
2021/10/01 11:36:28;;;;;;;1.58;0.50;;;;;;;25.74;30.36;97463.47;4989696;28;20030;-82
2021/10/01 11:39:09;;;;;;;0.90;0.70;;;;;;;25.71;30.75;97458.03;5005617;28;20113;-83
2021/10/01 11:41:42;;;;;;;1.38;0.80;;;;;;;25.54;29.98;97449.16;4985158;28;20061;-83
2021/10/01 11:44:08;;;;;;;1.50;0.60;;;;;;;25.85;29.02;97444.34;4973557;28;20113;-83
2021/10/01 11:46:48;;;;;;;2.03;0.80;;;;;;;25.53;31.26;97442.28;4973075;28;20044;-83
2021/10/01 11:49:27;;;;;;;1.25;0.60;;;;;;;25.35;30.17;97433.75;4973183;28;20030;-82
2021/10/01 11:52:02;;;;;;;0.90;0.50;;;;;;;25.52;31.09;97438.06;4989470;28;20045;-82
2021/10/01 11:54:28;;;;;;;0.60;0.60;;;;;;;25.38;31.75;97435.75;5001936;28;20112;-83
2021/10/01 11:57:00;;;;;;;1.88;0.85;;;;;;;25.41;29.88;97429.75;4991706;28;20719;-82
2021/10/01 11:59:47;;;;;;;1.65;0.77;;;;;;;25.37;30.07;97430.75;4972802;28;20034;-82
2021/10/01 12:02:25;;;;;;;0.63;0.57;;;;;;;25.35;31.70;97430.31;4970024;28;20029;-82
2021/10/01 12:04:50;;;;;;;1.95;1.50;;;;;;;25.40;30.92;97417.53;4992894;28;20033;-82
2021/10/01 12:07:15;;;;;;;1.27;0.70;;;;;;;25.02;32.09;97418.63;4974209;28;20583;-82
2021/10/01 12:09:41;;;;;;;0.80;0.80;;;;;;;24.91;31.49;97416.75;4985585;28;20029;-82
2021/10/01 12:12:08;;;;;;;1.05;0.80;;;;;;;24.51;32.47;97412.03;4976420;28;20030;-82
2021/10/01 12:14:34;;;;;;;0.90;0.85;;;;;;;24.10;33.54;97406.47;4979711;28;20108;-81
2021/10/01 12:17:05;;;;;;;1.33;0.70;;;;;;;23.78;33.05;97407.94;4992543;28;20038;-83
2021/10/01 12:19:33;;;;;;;2.58;0.98;;;;;;;23.83;33.33;97399.81;4991960;28;20125;-82
2021/10/01 12:22:11;;;;;;;0.82;0.68;;;;;;;23.38;34.45;97401.97;4992417;28;20030;-82
2021/10/01 12:24:50;;;;;;;2.17;0.90;;;;;;;23.26;34.09;97396.56;4976438;28;20033;-81
2021/10/01 12:27:17;;;;;;;1.65;0.73;;;;;;;23.13;33.89;97398.38;4976003;28;20438;-81
2021/10/01 12:29:50;;;;;;;1.88;0.93;;;;;;;22.96;35.37;97393.91;4975916;28;20033;-81
2021/10/01 12:32:18;;;;;;;0.77;0.60;;;;;;;22.73;35.58;97382.75;4992076;28;20497;-82
2021/10/01 12:34:56;;;;;;;1.75;0.70;;;;;;;22.25;35.88;97392.53;4976451;28;20025;-81
2021/10/01 12:37:23;;;;;;;0.70;0.55;;;;;;;22.26;36.81;97388.00;5008135;28;20030;-81
2021/10/01 12:39:52;;;;;;;0.75;0.55;;;;;;;22.19;37.28;97377.88;4991583;28;20033;-82
2021/10/01 12:42:37;;;;;;;2.00;0.63;;;;;;;21.92;36.41;97378.22;4991459;28;20038;-81
2021/10/01 12:45:06;;;;;;;1.17;0.60;;;;;;;22.27;38.06;97378.94;4972182;28;20038;-81
2021/10/01 12:47:37;;;;;;;1.75;0.65;;;;;;;22.04;35.60;97373.06;4995156;28;20041;-80
2021/10/01 12:50:07;;;;;;;1.10;0.43;;;;;;;22.05;36.45;97377.25;5002831;28;20064;-81
2021/10/01 12:52:34;;;;;;;1.08;0.60;;;;;;;22.00;36.26;97377.44;5009476;28;20045;-81
2021/10/01 12:55:01;;;;;;;0.95;0.95;;;;;;;21.84;36.35;97374.47;5008258;28;20037;-81
2021/10/01 12:57:48;;;;;;;0.85;0.60;;;;;;;21.78;37.83;97381.03;5002434;28;20031;-81
2021/10/01 13:00:21;;;;;;;0.95;0.50;;;;;;;21.62;37.61;97370.88;4970040;28;20041;-82
2021/10/01 13:02:49;;;;;;;0.70;0.50;;;;;;;21.68;36.98;97369.66;4990029;28;20211;-81
2021/10/01 13:05:21;;;;;;;2.22;0.68;;;;;;;21.55;37.44;97369.81;4972166;28;20038;-82
2021/10/01 13:07:53;;;;;;;3.33;1.02;;;;;;;21.72;35.83;97364.50;4972135;28;20030;-85
2021/10/01 13:10:23;;;;;;;0.95;0.50;;;;;;;21.55;34.35;97359.97;4964367;28;20449;-85
2021/10/01 13:13:02;;;;;;;2.03;0.60;;;;;;;21.44;34.52;97358.72;4988788;28;20238;-85
2021/10/01 13:15:30;;;;;;;0.85;0.55;;;;;;;21.38;36.09;97352.75;4988356;28;20104;-83
2021/10/01 13:18:08;;;;;;;0.47;0.47;;;;;;;21.27;35.61;97354.16;4971768;28;20040;-83
2021/10/01 13:20:40;;;;;;;1.30;0.52;;;;;;;21.26;35.82;97348.06;4975104;28;20033;-82
2021/10/01 13:23:06;;;;;;;0.95;0.50;;;;;;;21.30;34.90;97353.53;4991445;28;20174;-83